Sumner, Michigan
Current Conditions -  °F | °C
As of 2:50 PM on Thursday 30 Oct 2014 (Local Time) from KAMN Reporting Station
Overcast Overcast  
Wind Chill: 50°   Ceiling: 2900
Heat Index: 50°   Visibility: 10mi
Dew Point: 37°   Wind: 7mph
Humidity: 62%   Direction: 220°SW
Pressure: 30.06"   Gusts: NA
Location:  43.31°N, 84.82°W
Report Text: KAMN 301850Z AUTO 22006KT 10SM BKN029 BKN036 OVC046 10/03 A3006 RMK AO2 T01000029
Loading
Personal Weather Stations






























Interactive Weather Map New forecast layout! Learn more

10-Day Weather Forecast

Advertisements
Track Severe Weather on mobile